Cape Saint James, Canada
Current Conditions -  °F | °C
As of 9:00 PM on Tuesday 25 Nov 2014 (Local Time) from CYZP Reporting Station
Overcast Overcast  
Wind Chill: 40°   Ceiling: 3100
Heat Index: 43°   Visibility: 9mi
Dew Point: 41°   Wind: 5mph
Humidity: 93%   Direction: 250°WSW
Pressure: 30.15"   Gusts: NA
Location:  51.94°N, 131.02°W
Report Text: CYZP 260500Z AUTO 25004KT 9SM SCT018 BKN031 OVC038 06/05 A3015 RMK SLP210
Loading
Personal Weather Stations






























Interactive Weather Map New forecast layout! Learn more

10-Day Weather Forecast

Advertisements
Track Severe Weather on mobile